sensor_id;sensor_type;location;lat;lon;timestamp;temperature;humidity
27922;DHT22;15261;50.356;10.340;2024-02-28T00:00:48;5.40;99.90
27922;DHT22;15261;50.356;10.340;2024-02-28T00:03:13;5.40;99.90
27922;DHT22;15261;50.356;10.340;2024-02-28T00:05:39;5.50;99.90
27922;DHT22;15261;50.356;10.340;2024-02-28T00:08:05;5.60;99.90
27922;DHT22;15261;50.356;10.340;2024-02-28T00:10:32;5.50;99.90
27922;DHT22;15261;50.356;10.340;2024-02-28T00:12:58;5.50;99.90
27922;DHT22;15261;50.356;10.340;2024-02-28T00:15:24;5.60;99.90
27922;DHT22;15261;50.356;10.340;2024-02-28T00:17:52;5.60;99.90
27922;DHT22;15261;50.356;10.340;2024-02-28T00:20:18;5.60;99.90
27922;DHT22;15261;50.356;10.340;2024-02-28T00:22:44;5.60;99.90
27922;DHT22;15261;50.356;10.340;2024-02-28T00:25:10;5.50;99.90
27922;DHT22;15261;50.356;10.340;2024-02-28T00:27:37;5.60;99.90
27922;DHT22;15261;50.356;10.340;2024-02-28T00:30:03;5.60;99.90
27922;DHT22;15261;50.356;10.340;2024-02-28T00:32:32;5.60;99.90
27922;DHT22;15261;50.356;10.340;2024-02-28T00:34:57;5.60;99.90
27922;DHT22;15261;50.356;10.340;2024-02-28T00:37:23;5.70;99.90
27922;DHT22;15261;50.356;10.340;2024-02-28T00:39:49;5.80;99.90
27922;DHT22;15261;50.356;10.340;2024-02-28T00:42:15;5.80;99.90
27922;DHT22;15261;50.356;10.340;2024-02-28T00:44:41;5.90;99.90
27922;DHT22;15261;50.356;10.340;2024-02-28T00:47:10;5.80;99.90
27922;DHT22;15261;50.356;10.340;2024-02-28T00:49:36;5.80;99.90
27922;DHT22;15261;50.356;10.340;2024-02-28T00:52:02;5.80;99.90
27922;DHT22;15261;50.356;10.340;2024-02-28T00:54:28;5.70;99.90
27922;DHT22;15261;50.356;10.340;2024-02-28T00:56:53;5.70;99.90
27922;DHT22;15261;50.356;10.340;2024-02-28T00:59:19;5.70;99.90
27922;DHT22;15261;50.356;10.340;2024-02-28T01:01:44;5.80;99.90
27922;DHT22;15261;50.356;10.340;2024-02-28T01:04:10;5.80;99.90
27922;DHT22;15261;50.356;10.340;2024-02-28T01:06:35;5.80;99.90
27922;DHT22;15261;50.356;10.340;2024-02-28T01:09:01;5.80;99.90
27922;DHT22;15261;50.356;10.340;2024-02-28T01:11:26;5.90;99.90
27922;DHT22;15261;50.356;10.340;2024-02-28T01:13:52;5.90;99.90
27922;DHT22;15261;50.356;10.340;2024-02-28T01:16:17;5.90;99.90
27922;DHT22;15261;50.356;10.340;2024-02-28T01:18:43;5.80;99.90
27922;DHT22;15261;50.356;10.340;2024-02-28T01:21:09;5.90;99.90
27922;DHT22;15261;50.356;10.340;2024-02-28T01:23:35;5.90;99.90
27922;DHT22;15261;50.356;10.340;2024-02-28T01:26:01;5.80;99.90
27922;DHT22;15261;50.356;10.340;2024-02-28T01:28:29;5.90;99.90
27922;DHT22;15261;50.356;10.340;2024-02-28T01:30:54;5.80;99.90
27922;DHT22;15261;50.356;10.340;2024-02-28T01:33:20;5.80;99.90
27922;DHT22;15261;50.356;10.340;2024-02-28T01:35:46;5.90;99.90
27922;DHT22;15261;50.356;10.340;2024-02-28T01:38:11;5.90;99.90
27922;DHT22;15261;50.356;10.340;2024-02-28T01:40:37;5.90;99.90
27922;DHT22;15261;50.356;10.340;2024-02-28T01:43:12;5.90;99.90
27922;DHT22;15261;50.356;10.340;2024-02-28T01:45:37;5.90;99.90
27922;DHT22;15261;50.356;10.340;2024-02-28T01:48:07;5.90;99.90
27922;DHT22;15261;50.356;10.340;2024-02-28T01:50:34;5.90;99.90
27922;DHT22;15261;50.356;10.340;2024-02-28T01:53:01;5.90;99.90
27922;DHT22;15261;50.356;10.340;2024-02-28T01:55:27;5.90;99.90
27922;DHT22;15261;50.356;10.340;2024-02-28T01:57:53;5.90;99.90
27922;DHT22;15261;50.356;10.340;2024-02-28T02:00:19;5.90;99.90
27922;DHT22;15261;50.356;10.340;2024-02-28T02:18:18;5.80;99.90
27922;DHT22;15261;50.356;10.340;2024-02-28T02:20:48;5.80;99.90
27922;DHT22;15261;50.356;10.340;2024-02-28T02:23:15;5.80;99.90
27922;DHT22;15261;50.356;10.340;2024-02-28T02:25:47;5.80;99.90
27922;DHT22;15261;50.356;10.340;2024-02-28T02:28:13;5.80;99.90
27922;DHT22;15261;50.356;10.340;2024-02-28T02:30:40;5.80;99.90
27922;DHT22;15261;50.356;10.340;2024-02-28T02:33:07;5.80;99.90
27922;DHT22;15261;50.356;10.340;2024-02-28T02:35:33;5.80;99.90
27922;DHT22;15261;50.356;10.340;2024-02-28T02:38:00;5.60;99.90
27922;DHT22;15261;50.356;10.340;2024-02-28T02:40:25;5.50;99.90
27922;DHT22;15261;50.356;10.340;2024-02-28T02:42:51;5.50;99.90
27922;DHT22;15261;50.356;10.340;2024-02-28T02:45:17;5.50;99.90
27922;DHT22;15261;50.356;10.340;2024-02-28T02:47:42;5.50;99.90
27922;DHT22;15261;50.356;10.340;2024-02-28T02:50:09;5.60;99.90
27922;DHT22;15261;50.356;10.340;2024-02-28T02:52:35;5.60;99.90
27922;DHT22;15261;50.356;10.340;2024-02-28T02:55:01;5.70;99.90
27922;DHT22;15261;50.356;10.340;2024-02-28T02:57:27;5.70;99.90
27922;DHT22;15261;50.356;10.340;2024-02-28T02:59:52;5.60;99.90
27922;DHT22;15261;50.356;10.340;2024-02-28T03:02:18;5.60;99.90
27922;DHT22;15261;50.356;10.340;2024-02-28T03:04:44;5.60;99.90
27922;DHT22;15261;50.356;10.340;2024-02-28T03:07:09;5.60;99.90
27922;DHT22;15261;50.356;10.340;2024-02-28T03:09:35;5.60;99.90
27922;DHT22;15261;50.356;10.340;2024-02-28T03:12:00;5.60;99.90
27922;DHT22;15261;50.356;10.340;2024-02-28T03:14:26;5.60;99.90
27922;DHT22;15261;50.356;10.340;2024-02-28T03:16:53;5.60;99.90
27922;DHT22;15261;50.356;10.340;2024-02-28T03:19:19;5.70;99.90
27922;DHT22;15261;50.356;10.340;2024-02-28T03:21:45;5.70;99.90
27922;DHT22;15261;50.356;10.340;2024-02-28T03:24:11;5.80;99.90
27922;DHT22;15261;50.356;10.340;2024-02-28T03:26:37;5.70;99.90
27922;DHT22;15261;50.356;10.340;2024-02-28T03:29:02;5.60;99.90
27922;DHT22;15261;50.356;10.340;2024-02-28T03:31:28;5.60;99.90
27922;DHT22;15261;50.356;10.340;2024-02-28T03:33:54;5.50;99.90
27922;DHT22;15261;50.356;10.340;2024-02-28T03:36:20;5.50;99.90
27922;DHT22;15261;50.356;10.340;2024-02-28T03:38:45;5.50;99.90
27922;DHT22;15261;50.356;10.340;2024-02-28T03:41:11;5.50;99.90
27922;DHT22;15261;50.356;10.340;2024-02-28T03:43:37;5.40;99.90
27922;DHT22;15261;50.356;10.340;2024-02-28T03:46:03;5.40;99.90
27922;DHT22;15261;50.356;10.340;2024-02-28T03:48:28;5.40;99.90
27922;DHT22;15261;50.356;10.340;2024-02-28T03:50:54;5.40;99.90
27922;DHT22;15261;50.356;10.340;2024-02-28T03:53:20;5.40;99.90
27922;DHT22;15261;50.356;10.340;2024-02-28T03:55:45;5.30;99.90
27922;DHT22;15261;50.356;10.340;2024-02-28T03:58:11;5.30;99.90
27922;DHT22;15261;50.356;10.340;2024-02-28T04:00:37;5.20;99.90
27922;DHT22;15261;50.356;10.340;2024-02-28T04:03:04;5.10;99.90
27922;DHT22;15261;50.356;10.340;2024-02-28T04:05:29;5.10;99.90
27922;DHT22;15261;50.356;10.340;2024-02-28T04:07:55;5.10;99.90
27922;DHT22;15261;50.356;10.340;2024-02-28T04:10:21;5.10;99.90
27922;DHT22;15261;50.356;10.340;2024-02-28T04:12:47;5.10;99.90
27922;DHT22;15261;50.356;10.340;2024-02-28T04:15:14;5.20;99.90
27922;DHT22;15261;50.356;10.340;2024-02-28T04:17:40;5.20;99.90
27922;DHT22;15261;50.356;10.340;2024-02-28T04:20:13;5.30;99.90
27922;DHT22;15261;50.356;10.340;2024-02-28T04:22:39;5.30;99.90
27922;DHT22;15261;50.356;10.340;2024-02-28T04:25:05;5.30;99.90
27922;DHT22;15261;50.356;10.340;2024-02-28T04:27:32;5.40;99.90
27922;DHT22;15261;50.356;10.340;2024-02-28T04:29:58;5.30;99.90
27922;DHT22;15261;50.356;10.340;2024-02-28T04:32:23;5.30;99.90
27922;DHT22;15261;50.356;10.340;2024-02-28T04:34:49;5.20;99.90
27922;DHT22;15261;50.356;10.340;2024-02-28T04:37:15;5.20;99.90
27922;DHT22;15261;50.356;10.340;2024-02-28T04:39:40;5.20;99.90
27922;DHT22;15261;50.356;10.340;2024-02-28T04:42:06;5.20;99.90
27922;DHT22;15261;50.356;10.340;2024-02-28T04:44:32;5.20;99.90
27922;DHT22;15261;50.356;10.340;2024-02-28T04:46:58;5.20;99.90
27922;DHT22;15261;50.356;10.340;2024-02-28T04:49:24;5.10;99.90
27922;DHT22;15261;50.356;10.340;2024-02-28T04:51:49;4.80;99.90
27922;DHT22;15261;50.356;10.340;2024-02-28T04:54:15;4.70;99.90
27922;DHT22;15261;50.356;10.340;2024-02-28T04:56:41;4.80;99.90
27922;DHT22;15261;50.356;10.340;2024-02-28T04:59:13;4.90;99.90
27922;DHT22;15261;50.356;10.340;2024-02-28T05:01:39;5.00;99.90
27922;DHT22;15261;50.356;10.340;2024-02-28T05:04:07;5.10;99.90
27922;DHT22;15261;50.356;10.340;2024-02-28T05:06:33;5.10;99.90
27922;DHT22;15261;50.356;10.340;2024-02-28T05:08:59;5.00;99.90
27922;DHT22;15261;50.356;10.340;2024-02-28T05:11:24;4.80;99.90
27922;DHT22;15261;50.356;10.340;2024-02-28T05:13:50;4.80;99.90
27922;DHT22;15261;50.356;10.340;2024-02-28T05:16:16;4.90;99.90
27922;DHT22;15261;50.356;10.340;2024-02-28T05:18:42;5.00;99.90
27922;DHT22;15261;50.356;10.340;2024-02-28T05:21:09;5.00;99.90
27922;DHT22;15261;50.356;10.340;2024-02-28T05:23:34;5.00;99.90
27922;DHT22;15261;50.356;10.340;2024-02-28T05:26:00;5.10;99.90
27922;DHT22;15261;50.356;10.340;2024-02-28T05:33:43;5.20;99.90
27922;DHT22;15261;50.356;10.340;2024-02-28T05:36:08;5.20;99.90
27922;DHT22;15261;50.356;10.340;2024-02-28T05:38:35;5.10;99.90
27922;DHT22;15261;50.356;10.340;2024-02-28T05:41:00;5.20;99.90
27922;DHT22;15261;50.356;10.340;2024-02-28T05:43:26;5.10;99.90
27922;DHT22;15261;50.356;10.340;2024-02-28T05:45:52;5.00;99.90
27922;DHT22;15261;50.356;10.340;2024-02-28T05:48:18;4.80;99.90
27922;DHT22;15261;50.356;10.340;2024-02-28T05:50:44;4.90;99.90
27922;DHT22;15261;50.356;10.340;2024-02-28T05:53:09;5.00;99.90
27922;DHT22;15261;50.356;10.340;2024-02-28T05:55:35;4.90;99.90
27922;DHT22;15261;50.356;10.340;2024-02-28T05:58:01;4.90;99.90
27922;DHT22;15261;50.356;10.340;2024-02-28T06:00:27;4.90;99.90
27922;DHT22;15261;50.356;10.340;2024-02-28T06:02:53;4.90;99.90
27922;DHT22;15261;50.356;10.340;2024-02-28T06:05:19;4.90;99.90
27922;DHT22;15261;50.356;10.340;2024-02-28T06:07:44;5.00;99.90
27922;DHT22;15261;50.356;10.340;2024-02-28T06:10:10;5.00;99.90
27922;DHT22;15261;50.356;10.340;2024-02-28T06:12:36;4.90;99.90
27922;DHT22;15261;50.356;10.340;2024-02-28T06:15:02;4.90;99.90
27922;DHT22;15261;50.356;10.340;2024-02-28T06:17:29;4.90;99.90
27922;DHT22;15261;50.356;10.340;2024-02-28T06:19:54;4.80;99.90
27922;DHT22;15261;50.356;10.340;2024-02-28T06:22:20;4.80;99.90
27922;DHT22;15261;50.356;10.340;2024-02-28T06:24:46;4.80;99.90
27922;DHT22;15261;50.356;10.340;2024-02-28T06:27:11;4.70;99.90
27922;DHT22;15261;50.356;10.340;2024-02-28T06:29:39;4.60;99.90
27922;DHT22;15261;50.356;10.340;2024-02-28T06:32:05;4.70;99.90
27922;DHT22;15261;50.356;10.340;2024-02-28T06:34:30;4.70;99.90
27922;DHT22;15261;50.356;10.340;2024-02-28T06:36:56;4.70;99.90
27922;DHT22;15261;50.356;10.340;2024-02-28T06:39:22;4.80;99.90
27922;DHT22;15261;50.356;10.340;2024-02-28T06:41:48;4.70;99.90
27922;DHT22;15261;50.356;10.340;2024-02-28T06:44:18;4.70;99.90
27922;DHT22;15261;50.356;10.340;2024-02-28T06:46:43;4.70;99.90
27922;DHT22;15261;50.356;10.340;2024-02-28T06:49:09;4.70;99.90
27922;DHT22;15261;50.356;10.340;2024-02-28T06:51:35;4.70;99.90
27922;DHT22;15261;50.356;10.340;2024-02-28T06:54:00;4.80;99.90
27922;DHT22;15261;50.356;10.340;2024-02-28T06:56:26;4.90;99.90
27922;DHT22;15261;50.356;10.340;2024-02-28T06:58:51;4.90;99.90
27922;DHT22;15261;50.356;10.340;2024-02-28T07:01:17;5.00;99.90
27922;DHT22;15261;50.356;10.340;2024-02-28T07:03:44;5.10;99.90
27922;DHT22;15261;50.356;10.340;2024-02-28T07:06:11;5.10;99.90
27922;DHT22;15261;50.356;10.340;2024-02-28T07:08:36;5.10;99.90
27922;DHT22;15261;50.356;10.340;2024-02-28T07:11:02;5.20;99.90
27922;DHT22;15261;50.356;10.340;2024-02-28T07:13:28;5.30;99.90
27922;DHT22;15261;50.356;10.340;2024-02-28T07:15:54;5.20;99.90
27922;DHT22;15261;50.356;10.340;2024-02-28T07:18:20;5.30;99.90
27922;DHT22;15261;50.356;10.340;2024-02-28T07:20:46;5.30;99.90
27922;DHT22;15261;50.356;10.340;2024-02-28T07:23:12;5.50;99.90
27922;DHT22;15261;50.356;10.340;2024-02-28T07:25:38;5.50;99.90
27922;DHT22;15261;50.356;10.340;2024-02-28T07:28:03;5.40;99.90
27922;DHT22;15261;50.356;10.340;2024-02-28T07:30:30;5.50;99.90
27922;DHT22;15261;50.356;10.340;2024-02-28T07:32:56;5.40;99.90
27922;DHT22;15261;50.356;10.340;2024-02-28T07:35:22;5.30;99.90
27922;DHT22;15261;50.356;10.340;2024-02-28T07:37:49;5.30;99.90
27922;DHT22;15261;50.356;10.340;2024-02-28T07:40:15;5.40;99.90
27922;DHT22;15261;50.356;10.340;2024-02-28T07:42:40;5.50;99.90
27922;DHT22;15261;50.356;10.340;2024-02-28T07:45:06;5.70;99.90
27922;DHT22;15261;50.356;10.340;2024-02-28T07:47:34;5.60;99.90
27922;DHT22;15261;50.356;10.340;2024-02-28T07:49:59;5.70;99.90
27922;DHT22;15261;50.356;10.340;2024-02-28T07:52:25;5.80;99.90
27922;DHT22;15261;50.356;10.340;2024-02-28T07:54:50;5.90;99.90
27922;DHT22;15261;50.356;10.340;2024-02-28T07:57:17;6.00;99.90
27922;DHT22;15261;50.356;10.340;2024-02-28T07:59:42;6.10;99.90
27922;DHT22;15261;50.356;10.340;2024-02-28T08:02:08;6.10;99.90
27922;DHT22;15261;50.356;10.340;2024-02-28T08:04:35;6.30;99.90
27922;DHT22;15261;50.356;10.340;2024-02-28T08:07:00;6.40;99.90
27922;DHT22;15261;50.356;10.340;2024-02-28T08:09:26;6.40;99.90
27922;DHT22;15261;50.356;10.340;2024-02-28T08:11:52;6.50;99.90
27922;DHT22;15261;50.356;10.340;2024-02-28T08:14:17;6.60;99.90
27922;DHT22;15261;50.356;10.340;2024-02-28T08:16:43;6.60;99.90
27922;DHT22;15261;50.356;10.340;2024-02-28T08:19:09;6.60;99.90
27922;DHT22;15261;50.356;10.340;2024-02-28T08:21:34;6.70;99.90
27922;DHT22;15261;50.356;10.340;2024-02-28T08:24:00;6.60;99.90
27922;DHT22;15261;50.356;10.340;2024-02-28T08:26:30;6.80;99.90
27922;DHT22;15261;50.356;10.340;2024-02-28T08:28:55;6.90;99.90
27922;DHT22;15261;50.356;10.340;2024-02-28T08:31:21;6.90;99.90
27922;DHT22;15261;50.356;10.340;2024-02-28T08:33:46;6.90;99.90
27922;DHT22;15261;50.356;10.340;2024-02-28T08:36:12;7.10;99.90
27922;DHT22;15261;50.356;10.340;2024-02-28T08:38:38;7.10;99.90
27922;DHT22;15261;50.356;10.340;2024-02-28T08:41:04;7.10;99.90
27922;DHT22;15261;50.356;10.340;2024-02-28T08:43:30;7.00;99.90
27922;DHT22;15261;50.356;10.340;2024-02-28T08:45:56;7.10;99.90
27922;DHT22;15261;50.356;10.340;2024-02-28T08:48:21;7.10;99.90
27922;DHT22;15261;50.356;10.340;2024-02-28T08:50:48;7.00;99.90
27922;DHT22;15261;50.356;10.340;2024-02-28T08:53:14;6.80;99.90
27922;DHT22;15261;50.356;10.340;2024-02-28T08:55:39;6.90;99.90
27922;DHT22;15261;50.356;10.340;2024-02-28T08:58:05;6.90;99.90
27922;DHT22;15261;50.356;10.340;2024-02-28T09:00:31;6.90;99.90
27922;DHT22;15261;50.356;10.340;2024-02-28T09:02:56;6.90;99.90
27922;DHT22;15261;50.356;10.340;2024-02-28T09:05:23;6.80;99.90
27922;DHT22;15261;50.356;10.340;2024-02-28T09:07:49;6.80;99.90
27922;DHT22;15261;50.356;10.340;2024-02-28T09:10:17;6.80;99.90
27922;DHT22;15261;50.356;10.340;2024-02-28T09:12:47;6.70;99.90
27922;DHT22;15261;50.356;10.340;2024-02-28T09:15:12;6.90;99.90
27922;DHT22;15261;50.356;10.340;2024-02-28T09:17:38;6.90;99.90
27922;DHT22;15261;50.356;10.340;2024-02-28T09:20:04;6.90;99.90
27922;DHT22;15261;50.356;10.340;2024-02-28T09:22:31;6.80;99.90
27922;DHT22;15261;50.356;10.340;2024-02-28T09:24:57;6.90;99.90
27922;DHT22;15261;50.356;10.340;2024-02-28T09:27:23;6.90;99.90
27922;DHT22;15261;50.356;10.340;2024-02-28T09:29:50;6.90;99.90
27922;DHT22;15261;50.356;10.340;2024-02-28T09:32:15;7.10;99.90
27922;DHT22;15261;50.356;10.340;2024-02-28T09:34:41;7.20;99.90
27922;DHT22;15261;50.356;10.340;2024-02-28T09:37:07;7.20;99.90
27922;DHT22;15261;50.356;10.340;2024-02-28T09:39:32;7.20;99.90
27922;DHT22;15261;50.356;10.340;2024-02-28T09:41:58;7.20;99.90
27922;DHT22;15261;50.356;10.340;2024-02-28T09:44:23;7.20;99.90
27922;DHT22;15261;50.356;10.340;2024-02-28T09:46:52;7.20;99.90
27922;DHT22;15261;50.356;10.340;2024-02-28T09:49:18;7.30;99.90
27922;DHT22;15261;50.356;10.340;2024-02-28T09:51:44;7.20;99.90
27922;DHT22;15261;50.356;10.340;2024-02-28T09:54:11;7.20;99.90
27922;DHT22;15261;50.356;10.340;2024-02-28T09:56:36;7.40;99.90
27922;DHT22;15261;50.356;10.340;2024-02-28T09:59:02;7.40;99.90
27922;DHT22;15261;50.356;10.340;2024-02-28T10:01:29;7.50;99.90
27922;DHT22;15261;50.356;10.340;2024-02-28T10:03:55;7.50;99.90
27922;DHT22;15261;50.356;10.340;2024-02-28T10:06:22;7.50;99.90
27922;DHT22;15261;50.356;10.340;2024-02-28T10:08:48;7.60;99.90
27922;DHT22;15261;50.356;10.340;2024-02-28T10:11:22;7.60;99.90
27922;DHT22;15261;50.356;10.340;2024-02-28T10:13:48;7.70;99.90
27922;DHT22;15261;50.356;10.340;2024-02-28T10:16:14;7.70;99.90
27922;DHT22;15261;50.356;10.340;2024-02-28T10:18:43;7.80;99.90
27922;DHT22;15261;50.356;10.340;2024-02-28T10:21:09;7.80;99.90
27922;DHT22;15261;50.356;10.340;2024-02-28T10:23:36;8.00;99.90
27922;DHT22;15261;50.356;10.340;2024-02-28T10:26:02;8.20;99.90
27922;DHT22;15261;50.356;10.340;2024-02-28T10:28:27;8.20;99.90
27922;DHT22;15261;50.356;10.340;2024-02-28T10:30:54;8.30;99.80
27922;DHT22;15261;50.356;10.340;2024-02-28T10:33:20;8.50;99.90
27922;DHT22;15261;50.356;10.340;2024-02-28T10:35:49;8.60;99.00
27922;DHT22;15261;50.356;10.340;2024-02-28T10:38:17;8.60;98.60
27922;DHT22;15261;50.356;10.340;2024-02-28T10:40:43;8.70;98.60
27922;DHT22;15261;50.356;10.340;2024-02-28T10:43:09;8.80;98.30
27922;DHT22;15261;50.356;10.340;2024-02-28T10:45:39;8.80;97.20
27922;DHT22;15261;50.356;10.340;2024-02-28T10:48:05;8.80;98.20
27922;DHT22;15261;50.356;10.340;2024-02-28T10:50:31;8.80;97.60
27922;DHT22;15261;50.356;10.340;2024-02-28T10:53:02;8.90;97.60
27922;DHT22;15261;50.356;10.340;2024-02-28T10:55:33;9.00;97.70
27922;DHT22;15261;50.356;10.340;2024-02-28T10:58:04;9.10;97.30
27922;DHT22;15261;50.356;10.340;2024-02-28T11:00:33;9.10;96.60
27922;DHT22;15261;50.356;10.340;2024-02-28T11:02:59;9.10;96.30
27922;DHT22;15261;50.356;10.340;2024-02-28T11:05:38;9.10;95.30
27922;DHT22;15261;50.356;10.340;2024-02-28T11:08:20;9.20;95.10
27922;DHT22;15261;50.356;10.340;2024-02-28T11:10:47;9.20;95.10
27922;DHT22;15261;50.356;10.340;2024-02-28T11:13:23;9.20;95.00
27922;DHT22;15261;50.356;10.340;2024-02-28T11:15:49;9.20;94.50
27922;DHT22;15261;50.356;10.340;2024-02-28T11:18:16;9.20;94.20
27922;DHT22;15261;50.356;10.340;2024-02-28T11:20:41;9.30;94.60
27922;DHT22;15261;50.356;10.340;2024-02-28T11:23:09;9.30;93.40
27922;DHT22;15261;50.356;10.340;2024-02-28T11:25:35;9.40;94.10
27922;DHT22;15261;50.356;10.340;2024-02-28T11:28:01;9.40;94.10
27922;DHT22;15261;50.356;10.340;2024-02-28T11:30:27;9.50;93.20
27922;DHT22;15261;50.356;10.340;2024-02-28T11:32:53;9.60;93.40
27922;DHT22;15261;50.356;10.340;2024-02-28T11:35:27;9.70;92.50
27922;DHT22;15261;50.356;10.340;2024-02-28T11:37:54;9.70;92.90
27922;DHT22;15261;50.356;10.340;2024-02-28T11:40:24;9.70;92.90
27922;DHT22;15261;50.356;10.340;2024-02-28T11:42:54;9.80;92.70
27922;DHT22;15261;50.356;10.340;2024-02-28T11:45:20;9.90;92.60
27922;DHT22;15261;50.356;10.340;2024-02-28T11:47:45;9.90;92.20
27922;DHT22;15261;50.356;10.340;2024-02-28T11:50:11;10.00;91.80
27922;DHT22;15261;50.356;10.340;2024-02-28T11:52:37;10.10;91.60
27922;DHT22;15261;50.356;10.340;2024-02-28T11:55:03;10.10;91.00
27922;DHT22;15261;50.356;10.340;2024-02-28T11:57:29;10.10;90.70
27922;DHT22;15261;50.356;10.340;2024-02-28T12:00:02;10.10;91.40
27922;DHT22;15261;50.356;10.340;2024-02-28T12:02:29;10.30;91.90
27922;DHT22;15261;50.356;10.340;2024-02-28T12:05:00;10.30;90.90
27922;DHT22;15261;50.356;10.340;2024-02-28T12:07:26;10.40;89.70
27922;DHT22;15261;50.356;10.340;2024-02-28T12:09:54;10.40;89.80
27922;DHT22;15261;50.356;10.340;2024-02-28T12:12:19;10.40;88.70
27922;DHT22;15261;50.356;10.340;2024-02-28T12:14:46;10.40;89.30
27922;DHT22;15261;50.356;10.340;2024-02-28T12:17:11;10.30;88.20
27922;DHT22;15261;50.356;10.340;2024-02-28T12:19:45;10.30;89.20
27922;DHT22;15261;50.356;10.340;2024-02-28T12:22:11;10.30;89.50
27922;DHT22;15261;50.356;10.340;2024-02-28T12:24:37;10.30;88.50
27922;DHT22;15261;50.356;10.340;2024-02-28T12:27:02;10.30;88.60
27922;DHT22;15261;50.356;10.340;2024-02-28T12:29:28;10.20;89.60
27922;DHT22;15261;50.356;10.340;2024-02-28T12:31:54;10.30;90.00
27922;DHT22;15261;50.356;10.340;2024-02-28T12:34:19;10.30;89.30
27922;DHT22;15261;50.356;10.340;2024-02-28T12:36:46;10.20;88.50
27922;DHT22;15261;50.356;10.340;2024-02-28T12:39:12;10.20;89.40
27922;DHT22;15261;50.356;10.340;2024-02-28T12:41:38;10.10;88.40
27922;DHT22;15261;50.356;10.340;2024-02-28T12:44:05;10.10;89.00
27922;DHT22;15261;50.356;10.340;2024-02-28T12:46:32;10.20;89.60
27922;DHT22;15261;50.356;10.340;2024-02-28T12:48:58;10.10;89.70
27922;DHT22;15261;50.356;10.340;2024-02-28T12:51:45;10.20;90.00
27922;DHT22;15261;50.356;10.340;2024-02-28T12:54:12;10.10;88.60
27922;DHT22;15261;50.356;10.340;2024-02-28T12:56:39;10.20;90.50
27922;DHT22;15261;50.356;10.340;2024-02-28T12:59:08;10.30;90.30
27922;DHT22;15261;50.356;10.340;2024-02-28T13:01:34;10.30;89.20
27922;DHT22;15261;50.356;10.340;2024-02-28T13:04:00;10.30;89.20
27922;DHT22;15261;50.356;10.340;2024-02-28T13:06:25;10.40;89.30
27922;DHT22;15261;50.356;10.340;2024-02-28T13:08:51;10.40;89.70
27922;DHT22;15261;50.356;10.340;2024-02-28T13:11:23;10.40;87.80
27922;DHT22;15261;50.356;10.340;2024-02-28T13:13:50;10.30;87.50
27922;DHT22;15261;50.356;10.340;2024-02-28T13:16:19;10.30;86.10
27922;DHT22;15261;50.356;10.340;2024-02-28T13:18:46;10.30;88.50
27922;DHT22;15261;50.356;10.340;2024-02-28T13:21:11;10.40;88.80
27922;DHT22;15261;50.356;10.340;2024-02-28T13:23:37;10.40;87.40
27922;DHT22;15261;50.356;10.340;2024-02-28T13:26:04;10.40;88.10
27922;DHT22;15261;50.356;10.340;2024-02-28T13:28:30;10.40;87.40
27922;DHT22;15261;50.356;10.340;2024-02-28T13:31:00;10.40;86.60
27922;DHT22;15261;50.356;10.340;2024-02-28T13:33:26;10.40;84.90
27922;DHT22;15261;50.356;10.340;2024-02-28T13:35:53;10.40;83.70
27922;DHT22;15261;50.356;10.340;2024-02-28T13:38:20;10.40;84.80
27922;DHT22;15261;50.356;10.340;2024-02-28T13:40:49;10.40;84.70
27922;DHT22;15261;50.356;10.340;2024-02-28T13:43:15;10.40;85.50
27922;DHT22;15261;50.356;10.340;2024-02-28T13:45:47;10.40;84.70
27922;DHT22;15261;50.356;10.340;2024-02-28T13:48:21;10.40;83.10
27922;DHT22;15261;50.356;10.340;2024-02-28T13:50:48;10.40;84.20
27922;DHT22;15261;50.356;10.340;2024-02-28T13:53:17;10.30;83.40
27922;DHT22;15261;50.356;10.340;2024-02-28T13:55:43;10.20;86.50
27922;DHT22;15261;50.356;10.340;2024-02-28T13:58:11;10.20;83.90
27922;DHT22;15261;50.356;10.340;2024-02-28T14:00:38;10.20;83.50
27922;DHT22;15261;50.356;10.340;2024-02-28T14:03:04;10.30;83.10
27922;DHT22;15261;50.356;10.340;2024-02-28T14:05:33;10.20;80.90
27922;DHT22;15261;50.356;10.340;2024-02-28T14:07:59;10.20;81.10
27922;DHT22;15261;50.356;10.340;2024-02-28T14:10:25;10.20;80.40
27922;DHT22;15261;50.356;10.340;2024-02-28T14:12:55;10.20;81.60
27922;DHT22;15261;50.356;10.340;2024-02-28T14:18:43;10.20;80.30
27922;DHT22;15261;50.356;10.340;2024-02-28T14:21:10;10.10;78.90
27922;DHT22;15261;50.356;10.340;2024-02-28T14:24:01;10.10;81.60
27922;DHT22;15261;50.356;10.340;2024-02-28T14:26:26;10.10;80.40
27922;DHT22;15261;50.356;10.340;2024-02-28T14:28:52;10.10;81.70
27922;DHT22;15261;50.356;10.340;2024-02-28T14:31:24;10.00;78.50
27922;DHT22;15261;50.356;10.340;2024-02-28T14:33:50;10.00;79.50
27922;DHT22;15261;50.356;10.340;2024-02-28T14:36:15;10.00;81.00
27922;DHT22;15261;50.356;10.340;2024-02-28T14:38:41;9.90;80.70
27922;DHT22;15261;50.356;10.340;2024-02-28T14:41:07;9.90;81.70
27922;DHT22;15261;50.356;10.340;2024-02-28T14:43:33;9.90;82.10
27922;DHT22;15261;50.356;10.340;2024-02-28T14:45:58;9.90;82.80
27922;DHT22;15261;50.356;10.340;2024-02-28T14:48:24;9.80;81.00
27922;DHT22;15261;50.356;10.340;2024-02-28T14:50:50;9.80;81.40
27922;DHT22;15261;50.356;10.340;2024-02-28T14:53:15;9.80;82.60
27922;DHT22;15261;50.356;10.340;2024-02-28T14:55:44;9.70;83.10
27922;DHT22;15261;50.356;10.340;2024-02-28T14:58:12;9.70;83.80
27922;DHT22;15261;50.356;10.340;2024-02-28T15:00:38;9.70;83.70
27922;DHT22;15261;50.356;10.340;2024-02-28T15:03:04;9.70;83.30
27922;DHT22;15261;50.356;10.340;2024-02-28T15:05:30;9.60;82.70
27922;DHT22;15261;50.356;10.340;2024-02-28T15:07:55;9.60;82.20
27922;DHT22;15261;50.356;10.340;2024-02-28T15:10:21;9.50;84.90
27922;DHT22;15261;50.356;10.340;2024-02-28T15:12:49;9.50;84.80
27922;DHT22;15261;50.356;10.340;2024-02-28T15:15:15;9.40;85.20
27922;DHT22;15261;50.356;10.340;2024-02-28T15:17:41;9.30;86.30
27922;DHT22;15261;50.356;10.340;2024-02-28T15:20:37;9.30;86.60
27922;DHT22;15261;50.356;10.340;2024-02-28T15:23:03;9.30;87.10
27922;DHT22;15261;50.356;10.340;2024-02-28T15:25:29;9.20;86.70
27922;DHT22;15261;50.356;10.340;2024-02-28T15:27:55;9.20;87.00
27922;DHT22;15261;50.356;10.340;2024-02-28T15:30:20;9.10;86.80
27922;DHT22;15261;50.356;10.340;2024-02-28T15:32:46;9.10;86.80
27922;DHT22;15261;50.356;10.340;2024-02-28T15:35:12;9.10;87.40
27922;DHT22;15261;50.356;10.340;2024-02-28T15:37:37;9.10;87.40
27922;DHT22;15261;50.356;10.340;2024-02-28T15:40:06;9.10;86.20
27922;DHT22;15261;50.356;10.340;2024-02-28T15:42:35;9.00;89.10
27922;DHT22;15261;50.356;10.340;2024-02-28T15:45:01;8.90;88.80
27922;DHT22;15261;50.356;10.340;2024-02-28T15:47:27;8.80;88.80